createdAt,value
2018-05-24T00:00:41.245Z,10.67
2018-05-24T00:03:10.050Z,11.23
2018-05-24T00:05:38.959Z,10.77
2018-05-24T00:08:07.750Z,13.27
2018-05-24T00:10:36.630Z,11.70
2018-05-24T00:13:06.609Z,10.60
2018-05-24T00:15:35.413Z,13.63
2018-05-24T00:18:04.214Z,12.30
2018-05-24T00:20:33.529Z,11.33
2018-05-24T00:23:02.350Z,11.23
2018-05-24T00:25:31.241Z,12.77
2018-05-24T00:28:01.027Z,11.00
2018-05-24T00:30:29.824Z,9.93
2018-05-24T00:32:58.634Z,12.37
2018-05-24T00:35:27.699Z,10.40
2018-05-24T00:37:56.481Z,8.73
2018-05-24T00:40:25.310Z,10.90
2018-05-24T00:42:54.131Z,10.10
2018-05-24T00:45:22.934Z,9.67
2018-05-24T00:47:51.847Z,9.70
2018-05-24T00:50:20.734Z,10.80
2018-05-24T00:52:49.535Z,10.73
2018-05-24T00:55:24.350Z,11.33
2018-05-24T00:57:53.241Z,10.77
2018-05-24T01:00:22.033Z,13.23
2018-05-24T01:02:50.914Z,11.90
2018-05-24T01:05:19.731Z,11.33
2018-05-24T01:07:50.649Z,12.20
2018-05-24T01:10:19.538Z,11.13
2018-05-24T01:12:48.354Z,10.57
2018-05-24T01:15:17.260Z,12.10
2018-05-24T01:17:46.076Z,11.80
2018-05-24T01:20:14.870Z,13.07
2018-05-24T01:22:43.689Z,12.43
2018-05-24T01:25:12.586Z,12.00
2018-05-24T01:27:41.804Z,12.53
2018-05-24T01:30:10.646Z,11.20
2018-05-24T01:32:39.450Z,12.50
2018-05-24T01:35:08.372Z,11.70
2018-05-24T01:37:43.134Z,11.43
2018-05-24T01:40:12.181Z,11.00
2018-05-24T01:42:41.006Z,11.53
2018-05-24T01:45:09.848Z,9.73
2018-05-24T01:47:38.658Z,10.50
2018-05-24T01:50:07.498Z,13.57
2018-05-24T01:52:36.577Z,12.80
2018-05-24T01:55:05.438Z,13.17
2018-05-24T01:57:34.259Z,12.17
2018-05-24T02:00:03.093Z,12.67
2018-05-24T02:02:31.883Z,13.60
2018-05-24T02:05:00.791Z,15.83
2018-05-24T02:07:29.773Z,12.60
2018-05-24T02:10:00.098Z,13.87
2018-05-24T02:12:28.901Z,15.00
2018-05-24T02:14:57.785Z,13.10
2018-05-24T02:17:26.977Z,11.30
2018-05-24T02:19:55.870Z,10.60
2018-05-24T02:22:24.759Z,13.67
2018-05-24T02:24:53.567Z,13.83
2018-05-24T02:27:22.378Z,15.77
2018-05-24T02:29:51.642Z,14.83
2018-05-24T02:32:20.454Z,11.00
2018-05-24T02:34:49.328Z,12.80
2018-05-24T02:37:18.174Z,13.43
2018-05-24T02:39:47.000Z,13.00
2018-05-24T02:42:15.850Z,14.63
2018-05-24T02:44:44.784Z,14.07
2018-05-24T02:47:13.635Z,15.00
2018-05-24T02:49:42.449Z,13.93
2018-05-24T02:52:11.492Z,14.63
2018-05-24T02:54:40.351Z,17.50
2018-05-24T02:57:09.165Z,16.37
2018-05-24T02:59:38.028Z,18.87
2018-05-24T03:02:06.851Z,17.53
2018-05-24T03:04:35.634Z,12.80
2018-05-24T03:07:04.702Z,12.33
2018-05-24T03:09:34.963Z,11.30
2018-05-24T03:12:03.772Z,11.50
2018-05-24T03:14:32.800Z,12.13
2018-05-24T03:17:01.602Z,14.10
2018-05-24T03:19:30.478Z,10.13
2018-05-24T03:21:59.586Z,9.90
2018-05-24T03:24:28.474Z,9.67
2018-05-24T03:26:57.281Z,11.10
2018-05-24T03:29:26.513Z,13.50
2018-05-24T03:31:55.400Z,9.27
2018-05-24T03:34:24.107Z,9.70
2018-05-24T03:36:52.930Z,11.87
2018-05-24T03:39:21.860Z,14.80
2018-05-24T03:41:50.804Z,12.93
2018-05-24T03:44:19.605Z,13.67
2018-05-24T03:46:48.490Z,16.07
2018-05-24T03:49:17.511Z,16.97
2018-05-24T03:51:46.391Z,15.90
2018-05-24T03:54:15.186Z,13.37
2018-05-24T03:56:44.026Z,15.63
2018-05-24T03:59:32.557Z,14.10
2018-05-24T04:02:07.337Z,14.77
2018-05-24T04:04:42.043Z,16.80
2018-05-24T04:07:11.569Z,15.80
2018-05-24T04:09:41.693Z,18.10
2018-05-24T04:12:10.586Z,21.83
2018-05-24T04:14:39.469Z,24.20
2018-05-24T04:17:08.358Z,38.90
2018-05-24T04:19:37.440Z,67.33
2018-05-24T04:22:06.264Z,62.43
2018-05-24T04:24:35.137Z,49.07
2018-05-24T04:27:04.305Z,35.33
2018-05-24T04:29:33.034Z,42.17
2018-05-24T04:32:01.921Z,42.67
2018-05-24T04:34:30.671Z,33.53
2018-05-24T04:36:59.466Z,32.20
2018-05-24T04:39:28.290Z,43.30
2018-05-24T04:41:57.178Z,36.63
2018-05-24T04:44:26.071Z,34.30
2018-05-24T04:46:57.282Z,52.97
2018-05-24T04:49:26.310Z,27.80
2018-05-24T04:51:55.115Z,25.60
2018-05-24T04:54:23.915Z,24.23
2018-05-24T04:56:52.877Z,22.47
2018-05-24T04:59:21.764Z,16.13
2018-05-24T05:01:50.570Z,18.27
2018-05-24T05:04:19.965Z,13.87
2018-05-24T05:06:48.765Z,11.90
2018-05-24T05:09:17.570Z,12.73
2018-05-24T05:11:46.440Z,15.10
2018-05-24T05:14:15.331Z,14.20
2018-05-24T05:16:44.134Z,13.73
2018-05-24T05:19:12.998Z,12.70
2018-05-24T05:21:42.606Z,12.83
2018-05-24T05:24:11.597Z,18.33
2018-05-24T05:26:40.399Z,16.23
2018-05-24T05:29:09.306Z,18.80
2018-05-24T05:31:38.285Z,15.20
2018-05-24T05:34:07.081Z,15.87
2018-05-24T05:36:35.960Z,14.93
2018-05-24T05:39:05.766Z,15.60
2018-05-24T05:41:35.067Z,16.43
2018-05-24T05:44:03.872Z,15.20
2018-05-24T05:46:32.666Z,16.10
2018-05-24T05:49:01.739Z,15.90
2018-05-24T05:51:30.647Z,15.57
2018-05-24T05:53:59.538Z,16.70
2018-05-24T05:56:28.950Z,18.10
2018-05-24T05:58:57.761Z,17.47
2018-05-24T06:01:26.566Z,17.93
2018-05-24T06:03:55.411Z,16.40
2018-05-24T06:06:24.302Z,17.47
2018-05-24T06:08:53.726Z,19.93
2018-05-24T06:11:22.515Z,16.93
2018-05-24T06:13:51.381Z,17.17
2018-05-24T06:16:20.221Z,16.07
2018-05-24T06:18:49.429Z,16.37
2018-05-24T06:21:18.221Z,15.03
2018-05-24T06:23:47.465Z,16.73
2018-05-24T06:26:16.378Z,16.33
2018-05-24T06:28:45.183Z,16.03
2018-05-24T06:31:14.346Z,17.27
2018-05-24T06:33:43.146Z,16.43
2018-05-24T06:36:12.030Z,16.57
2018-05-24T06:38:41.223Z,16.77
2018-05-24T06:41:10.018Z,18.50
2018-05-24T06:43:38.903Z,15.53
2018-05-24T06:46:07.718Z,15.03
2018-05-24T06:48:36.517Z,15.33
2018-05-24T06:51:06.193Z,14.90
2018-05-24T06:53:35.072Z,15.97
2018-05-24T06:56:03.806Z,15.00
2018-05-24T06:58:32.645Z,13.70
2018-05-24T07:01:01.551Z,14.20
2018-05-24T07:03:30.650Z,13.87
2018-05-24T07:05:59.500Z,13.53
2018-05-24T07:08:28.255Z,11.20
2018-05-24T07:10:57.086Z,12.60
2018-05-24T07:13:25.880Z,12.50
2018-05-24T07:15:54.683Z,12.23
2018-05-24T07:18:23.551Z,11.27
2018-05-24T07:20:52.350Z,11.63
2018-05-24T07:23:21.156Z,10.63
2018-05-24T07:25:51.490Z,11.30
2018-05-24T07:28:20.298Z,11.67
2018-05-24T07:30:49.115Z,12.00
2018-05-24T07:33:17.960Z,11.67
2018-05-24T07:35:46.757Z,10.50
2018-05-24T07:38:15.558Z,11.13
2018-05-24T07:40:44.733Z,10.20
2018-05-24T07:43:13.620Z,10.50
2018-05-24T07:45:42.505Z,10.07
2018-05-24T07:48:11.413Z,9.43
2018-05-24T07:50:40.208Z,10.27
2018-05-24T07:53:09.589Z,10.30
2018-05-24T07:55:38.487Z,9.60
2018-05-24T07:58:07.390Z,10.37
2018-05-24T08:00:36.225Z,9.87
2018-05-24T08:03:05.025Z,9.63
2018-05-24T08:05:33.885Z,10.97
2018-05-24T08:08:02.740Z,10.13
2018-05-24T08:10:31.634Z,10.30
2018-05-24T08:13:00.788Z,10.17
2018-05-24T08:15:29.629Z,10.40
2018-05-24T08:17:58.423Z,10.33
2018-05-24T08:20:28.730Z,9.80
2018-05-24T08:22:57.521Z,9.87
2018-05-24T08:25:26.720Z,9.70
2018-05-24T08:27:56.346Z,8.60
2018-05-24T08:30:25.139Z,8.67
2018-05-24T08:32:54.001Z,9.40
2018-05-24T08:35:22.802Z,8.80
2018-05-24T08:37:52.618Z,8.90
2018-05-24T08:40:21.394Z,7.23
2018-05-24T08:42:50.197Z,8.23
2018-05-24T08:45:19.489Z,8.20
2018-05-24T08:47:48.289Z,8.23
2018-05-24T08:50:17.102Z,9.30
2018-05-24T08:52:45.919Z,9.93
2018-05-24T08:55:14.725Z,10.60
2018-05-24T08:57:43.840Z,9.97
2018-05-24T09:00:12.647Z,10.33
2018-05-24T09:02:41.463Z,10.38
2018-05-24T09:05:10.655Z,10.55
2018-05-24T09:07:39.505Z,9.60
2018-05-24T09:10:08.315Z,9.52
2018-05-24T09:12:37.546Z,9.55
2018-05-24T09:15:06.477Z,9.95
2018-05-24T09:17:35.505Z,8.82
2018-05-24T09:20:04.409Z,9.82
2018-05-24T09:22:33.191Z,9.48
2018-05-24T09:25:02.092Z,9.07
2018-05-24T09:27:30.882Z,9.18
2018-05-24T09:30:00.646Z,9.27
2018-05-24T09:32:29.959Z,9.88
2018-05-24T09:34:58.771Z,8.88
2018-05-24T09:37:27.642Z,8.82
2018-05-24T09:39:56.710Z,8.57
2018-05-24T09:42:25.556Z,7.85
2018-05-24T09:44:54.398Z,8.40
2018-05-24T09:47:24.216Z,8.32
2018-05-24T09:49:53.053Z,9.05
2018-05-24T09:52:23.153Z,8.75
2018-05-24T09:54:52.026Z,8.32
2018-05-24T09:57:20.887Z,9.45
2018-05-24T09:59:49.681Z,8.35
2018-05-24T10:02:18.654Z,9.35
2018-05-24T10:04:47.491Z,7.80
2018-05-24T10:07:16.377Z,8.05
2018-05-24T10:09:47.934Z,8.45
2018-05-24T10:12:16.723Z,8.82
2018-05-24T10:14:45.511Z,7.68
2018-05-24T10:17:14.807Z,8.00
2018-05-24T10:19:43.595Z,8.13
2018-05-24T10:22:12.382Z,8.48
2018-05-24T10:24:41.587Z,7.95
2018-05-24T10:27:10.378Z,7.97
2018-05-24T10:29:39.176Z,8.32
2018-05-24T10:32:08.150Z,7.30
2018-05-24T10:34:37.047Z,8.65
2018-05-24T10:37:05.881Z,8.32
2018-05-24T10:39:34.867Z,8.02
2018-05-24T10:42:03.634Z,7.72
2018-05-24T10:44:32.425Z,7.35
2018-05-24T10:47:01.578Z,7.55
2018-05-24T10:49:30.405Z,7.12
2018-05-24T10:51:59.293Z,7.43
2018-05-24T10:54:28.275Z,7.20
2018-05-24T10:56:57.067Z,7.53
2018-05-24T10:59:25.881Z,7.60
2018-05-24T11:01:54.668Z,7.62
2018-05-24T11:04:23.458Z,6.93
2018-05-24T11:06:52.725Z,6.93
2018-05-24T11:09:23.566Z,6.60
2018-05-24T11:11:52.455Z,6.82
2018-05-24T11:14:21.862Z,7.87
2018-05-24T11:16:50.770Z,7.53
2018-05-24T11:19:19.646Z,7.25
2018-05-24T11:21:51.110Z,6.78
2018-05-24T11:24:19.991Z,7.15
2018-05-24T11:26:49.499Z,7.78
2018-05-24T11:29:18.378Z,7.30
2018-05-24T11:31:47.230Z,8.02
2018-05-24T11:34:16.166Z,8.10
2018-05-24T11:36:45.067Z,7.55
2018-05-24T11:39:13.942Z,7.60
2018-05-24T11:41:42.758Z,7.35
2018-05-24T11:44:11.554Z,7.57
2018-05-24T11:46:40.837Z,7.25
2018-05-24T11:49:09.718Z,7.57
2018-05-24T11:51:38.607Z,7.78
2018-05-24T11:54:07.611Z,7.60
2018-05-24T11:56:36.497Z,7.80
2018-05-24T11:59:05.399Z,7.40
2018-05-24T12:01:34.688Z,7.32
2018-05-24T12:04:03.503Z,7.03
2018-05-24T12:06:32.304Z,7.00
2018-05-24T12:09:02.800Z,7.95
2018-05-24T12:11:31.602Z,7.55
2018-05-24T12:14:00.680Z,6.90
2018-05-24T12:16:29.473Z,6.72
2018-05-24T12:18:58.359Z,7.55
2018-05-24T12:21:27.188Z,7.60
2018-05-24T12:23:56.040Z,8.18
2018-05-24T12:26:25.299Z,9.30
2018-05-24T12:28:54.131Z,8.88
2018-05-24T12:31:22.942Z,9.32
2018-05-24T12:33:52.118Z,9.63
2018-05-24T12:36:20.927Z,10.05
2018-05-24T12:38:49.894Z,9.32
2018-05-24T12:41:19.043Z,10.15
2018-05-24T12:43:47.895Z,9.57
2018-05-24T12:46:16.796Z,9.73
2018-05-24T12:48:45.882Z,10.60
2018-05-24T12:51:14.690Z,11.98
2018-05-24T12:53:43.515Z,9.43
2018-05-24T12:56:12.422Z,4.97
2018-05-24T12:58:41.187Z,4.30
2018-05-24T13:01:10.025Z,7.82
2018-05-24T13:03:39.574Z,12.10
2018-05-24T13:06:08.432Z,12.95
2018-05-24T13:08:38.954Z,11.77
2018-05-24T13:11:08.279Z,9.30
2018-05-24T13:13:37.061Z,4.10
2018-05-24T13:16:05.863Z,4.80
2018-05-24T13:18:34.691Z,4.37
2018-05-24T13:21:03.478Z,4.37
2018-05-24T13:23:32.619Z,4.18
2018-05-24T13:26:01.419Z,4.60
2018-05-24T13:28:30.227Z,6.43
2018-05-24T13:30:59.092Z,6.73
2018-05-24T13:33:27.899Z,11.80
2018-05-24T13:35:56.762Z,14.97
2018-05-24T13:38:25.651Z,18.10
2018-05-24T13:40:54.630Z,20.60
2018-05-24T13:43:23.430Z,24.37
2018-05-24T13:45:52.234Z,28.23
2018-05-24T13:48:21.067Z,29.50
2018-05-24T13:50:49.907Z,23.30
2018-05-24T13:53:19.193Z,18.90
2018-05-24T13:55:48.102Z,18.03
2018-05-24T13:58:16.994Z,15.97
2018-05-24T14:00:45.799Z,13.77
2018-05-24T14:03:14.663Z,15.43
2018-05-24T14:05:44.386Z,14.70
2018-05-24T14:08:14.197Z,15.40
2018-05-24T14:10:43.182Z,17.50
2018-05-24T14:13:12.278Z,19.30
2018-05-24T14:15:41.171Z,17.60
2018-05-24T14:18:09.966Z,21.93
2018-05-24T14:20:39.059Z,24.07
2018-05-24T14:23:07.945Z,21.67
2018-05-24T14:25:36.758Z,20.83
2018-05-24T14:28:05.602Z,28.60
2018-05-24T14:30:34.411Z,25.90
2018-05-24T14:33:03.216Z,20.17
2018-05-24T14:35:32.680Z,18.80
2018-05-24T14:38:01.522Z,26.53
2018-05-24T14:40:30.385Z,24.83
2018-05-24T14:42:59.939Z,23.07
2018-05-24T14:45:28.738Z,23.80
2018-05-24T14:47:57.537Z,22.20
2018-05-24T14:50:26.661Z,24.77
2018-05-24T14:52:55.458Z,24.70
2018-05-24T14:55:24.276Z,24.97
2018-05-24T14:57:53.141Z,25.03
2018-05-24T15:00:22.025Z,22.67
2018-05-24T15:02:51.056Z,30.73
2018-05-24T15:05:19.826Z,27.23
2018-05-24T15:07:48.736Z,25.40
2018-05-24T15:10:18.139Z,22.97
2018-05-24T15:12:47.619Z,24.73
2018-05-24T15:15:16.435Z,21.20
2018-05-24T15:17:45.762Z,20.23
2018-05-24T15:20:14.598Z,22.17
2018-05-24T15:22:43.491Z,20.20
2018-05-24T15:25:12.287Z,16.17
2018-05-24T15:27:41.099Z,15.73
2018-05-24T15:30:09.918Z,15.30
2018-05-24T15:32:38.739Z,13.93
2018-05-24T15:35:08.071Z,17.73
2018-05-24T15:37:36.944Z,16.07
2018-05-24T15:40:05.829Z,16.60
2018-05-24T15:42:34.689Z,15.47
2018-05-24T15:45:03.494Z,15.70
2018-05-24T15:47:32.302Z,14.07
2018-05-24T15:50:01.311Z,12.17
2018-05-24T15:52:30.121Z,11.77
2018-05-24T15:54:58.967Z,13.80
2018-05-24T15:57:27.793Z,10.43
2018-05-24T15:59:56.596Z,11.77
2018-05-24T16:02:25.402Z,11.17
2018-05-24T16:04:54.241Z,12.07
2018-05-24T16:07:23.055Z,11.70
2018-05-24T16:09:51.839Z,11.00
2018-05-24T16:12:20.898Z,11.97
2018-05-24T16:14:50.596Z,11.40
2018-05-24T16:17:19.499Z,12.07
2018-05-24T16:19:48.339Z,13.97
2018-05-24T16:22:17.156Z,12.53
2018-05-24T16:24:45.960Z,11.77
2018-05-24T16:27:14.810Z,12.87
2018-05-24T16:29:43.638Z,16.23
2018-05-24T16:32:12.441Z,14.97
2018-05-24T16:34:41.745Z,13.97
2018-05-24T16:37:10.542Z,13.97
2018-05-24T16:39:39.340Z,14.63
2018-05-24T16:42:08.613Z,13.43
2018-05-24T16:44:37.419Z,13.50
2018-05-24T16:47:06.221Z,14.03
2018-05-24T16:49:35.097Z,13.10
2018-05-24T16:52:03.991Z,10.27
2018-05-24T16:54:32.916Z,10.37
2018-05-24T16:57:01.755Z,9.30
2018-05-24T16:59:30.546Z,10.57
2018-05-24T17:01:59.853Z,10.37
2018-05-24T17:04:28.663Z,12.07
2018-05-24T17:06:57.540Z,11.77
2018-05-24T17:09:27.955Z,12.10
2018-05-24T17:11:56.755Z,11.57
2018-05-24T17:14:25.665Z,11.90
2018-05-24T17:16:55.270Z,11.70
2018-05-24T17:19:24.391Z,11.67
2018-05-24T17:21:53.477Z,11.73
2018-05-24T17:24:22.495Z,10.87
2018-05-24T17:26:51.590Z,11.43
2018-05-24T17:29:20.737Z,12.13
2018-05-24T17:31:49.725Z,12.67
2018-05-24T17:34:19.658Z,13.13
2018-05-24T17:36:48.952Z,15.93
2018-05-24T17:39:17.785Z,18.03
2018-05-24T17:41:46.619Z,17.03
2018-05-24T17:44:16.029Z,15.70
2018-05-24T17:46:44.912Z,20.00
2018-05-24T17:49:13.747Z,19.23
2018-05-24T17:51:42.783Z,16.30
2018-05-24T17:54:11.582Z,18.53
2018-05-24T17:56:40.411Z,17.53
2018-05-24T17:59:09.658Z,13.93
2018-05-24T18:01:38.454Z,14.17
2018-05-24T18:04:07.266Z,13.67
2018-05-24T18:06:36.623Z,14.10
2018-05-24T18:09:06.567Z,13.43
2018-05-24T18:11:35.383Z,14.40
2018-05-24T18:14:04.875Z,15.07
2018-05-24T18:16:33.668Z,15.33
2018-05-24T18:19:02.476Z,15.47
2018-05-24T18:21:31.446Z,14.53
2018-05-24T18:24:00.255Z,27.50
2018-05-24T18:26:29.076Z,16.37
2018-05-24T18:28:57.919Z,15.33
2018-05-24T18:31:26.726Z,14.43
2018-05-24T18:33:55.536Z,15.53
2018-05-24T18:36:24.801Z,13.73
2018-05-24T18:38:53.619Z,12.93
2018-05-24T18:41:22.411Z,15.87
2018-05-24T18:43:52.279Z,14.83
2018-05-24T18:46:21.085Z,16.97
2018-05-24T18:48:49.882Z,17.67
2018-05-24T18:51:18.710Z,18.53
2018-05-24T18:53:47.507Z,15.33
2018-05-24T18:56:16.735Z,17.50
2018-05-24T18:58:45.551Z,20.70
2018-05-24T19:01:14.368Z,16.73
2018-05-24T19:03:43.170Z,19.53
2018-05-24T19:06:11.979Z,22.27
2018-05-24T19:08:42.825Z,16.63
2018-05-24T19:11:11.618Z,23.57
2018-05-24T19:13:40.431Z,25.07
2018-05-24T19:16:09.273Z,20.47
2018-05-24T19:18:38.078Z,22.73
2018-05-24T19:21:06.929Z,26.50
2018-05-24T19:23:35.738Z,21.00
2018-05-24T19:26:04.548Z,18.40
2018-05-24T19:28:33.787Z,21.73
2018-05-24T19:31:02.684Z,19.57
2018-05-24T19:33:31.484Z,19.10
2018-05-24T19:36:00.307Z,21.37
2018-05-24T19:38:29.214Z,35.00
2018-05-24T19:40:58.102Z,36.27
2018-05-24T19:43:26.910Z,79.50
2018-05-24T19:45:55.798Z,50.50
2018-05-24T19:48:24.634Z,89.13
2018-05-24T19:50:53.447Z,113.80
2018-05-24T19:53:22.375Z,102.63
2018-05-24T19:55:51.203Z,77.37
2018-05-24T19:58:20.059Z,39.80
2018-05-24T20:00:49.134Z,29.87
2018-05-24T20:03:17.943Z,31.13
2018-05-24T20:05:46.742Z,30.20
2018-05-24T20:08:18.175Z,29.80
2018-05-24T20:10:46.974Z,29.87
2018-05-24T20:13:15.810Z,32.97
2018-05-24T20:15:44.746Z,29.93
2018-05-24T20:18:13.559Z,31.93
2018-05-24T20:20:42.737Z,38.77
2018-05-24T20:23:11.526Z,32.63
2018-05-24T20:25:40.336Z,33.63
2018-05-24T20:28:09.903Z,36.43
2018-05-24T20:30:38.807Z,40.67
2018-05-24T20:33:07.603Z,34.17
2018-05-24T20:35:36.515Z,33.73
2018-05-24T20:38:05.363Z,38.50
2018-05-24T20:40:34.259Z,35.37
2018-05-24T20:43:03.148Z,32.27
2018-05-24T20:45:32.062Z,27.00
2018-05-24T20:48:00.868Z,33.60
2018-05-24T20:50:30.146Z,33.87
2018-05-24T20:52:59.042Z,28.57
2018-05-24T20:55:27.852Z,27.87
2018-05-24T20:57:56.666Z,35.73
2018-05-24T21:00:25.476Z,32.87
2018-05-24T21:02:55.714Z,35.00
2018-05-24T21:05:24.861Z,34.90
2018-05-24T21:07:54.833Z,35.53
2018-05-24T21:10:23.679Z,37.87
2018-05-24T21:12:52.519Z,34.37
2018-05-24T21:15:21.405Z,38.93
2018-05-24T21:17:50.390Z,33.23
2018-05-24T21:20:19.263Z,35.83
2018-05-24T21:22:48.083Z,34.80
2018-05-24T21:25:17.581Z,31.83
2018-05-24T21:27:46.387Z,33.93
2018-05-24T21:30:15.185Z,33.87
2018-05-24T21:32:44.032Z,35.80
2018-05-24T21:35:12.938Z,29.40
2018-05-24T21:37:41.847Z,29.27
2018-05-24T21:40:10.834Z,37.83
2018-05-24T21:42:39.722Z,29.17
2018-05-24T21:45:08.563Z,29.10
2018-05-24T21:47:37.906Z,26.47
2018-05-24T21:50:06.723Z,29.57
2018-05-24T21:52:35.533Z,24.70
2018-05-24T21:55:05.406Z,23.90
2018-05-24T21:57:34.307Z,28.77
2018-05-24T22:00:03.211Z,24.07
2018-05-24T22:02:32.039Z,24.47
2018-05-24T22:05:00.843Z,25.87
2018-05-24T22:07:30.235Z,22.57
2018-05-24T22:10:01.024Z,20.77
2018-05-24T22:12:29.845Z,22.77
2018-05-24T22:14:58.825Z,21.47
2018-05-24T22:17:27.629Z,25.03
2018-05-24T22:19:56.426Z,21.07
2018-05-24T22:22:25.286Z,24.73
2018-05-24T22:24:54.500Z,29.47
2018-05-24T22:27:23.305Z,21.90
2018-05-24T22:29:52.225Z,22.97
2018-05-24T22:32:21.050Z,25.17
2018-05-24T22:34:49.906Z,27.37
2018-05-24T22:37:19.006Z,24.77
2018-05-24T22:39:47.894Z,20.43
2018-05-24T22:42:16.783Z,25.83
2018-05-24T22:44:46.089Z,20.83
2018-05-24T22:47:14.979Z,24.10
2018-05-24T22:49:44.082Z,22.10
2018-05-24T22:52:12.873Z,22.17
2018-05-24T22:54:41.675Z,24.30
2018-05-24T22:57:10.538Z,24.73
2018-05-24T22:59:39.438Z,26.40
2018-05-24T23:02:08.258Z,19.60
2018-05-24T23:04:37.323Z,22.47
2018-05-24T23:07:06.214Z,18.87
2018-05-24T23:09:37.057Z,21.17
2018-05-24T23:12:06.250Z,26.63
2018-05-24T23:14:35.046Z,16.40
2018-05-24T23:17:03.864Z,23.43
2018-05-24T23:19:32.818Z,29.67
2018-05-24T23:22:01.634Z,26.43
2018-05-24T23:24:30.421Z,31.73
2018-05-24T23:26:59.661Z,26.67
2018-05-24T23:29:28.470Z,21.80
2018-05-24T23:31:57.286Z,35.40
2018-05-24T23:34:26.169Z,39.30
2018-05-24T23:36:54.966Z,36.90
2018-05-24T23:39:23.766Z,38.43
2018-05-24T23:41:52.941Z,32.87
2018-05-24T23:44:21.829Z,26.37
2018-05-24T23:46:50.727Z,21.77
2018-05-24T23:49:19.830Z,17.80
2018-05-24T23:51:48.709Z,21.07
2018-05-24T23:54:17.506Z,20.77
2018-05-24T23:56:46.599Z,31.43
2018-05-24T23:59:15.390Z,19.23
